createdAt,value
2019-03-19T00:00:59.898Z,-0.7
2019-03-19T00:02:07.344Z,-0.7
2019-03-19T00:03:14.538Z,-0.8
2019-03-19T00:04:21.464Z,-0.8
2019-03-19T00:05:28.696Z,-0.9
2019-03-19T00:06:35.656Z,-0.9
2019-03-19T00:07:42.865Z,-0.9
2019-03-19T00:08:50.093Z,-0.9
2019-03-19T00:09:57.305Z,-0.9
2019-03-19T00:11:04.720Z,-0.9
2019-03-19T00:12:11.926Z,-0.9
2019-03-19T00:13:19.353Z,-0.9
2019-03-19T00:14:26.558Z,-0.9
2019-03-19T00:15:33.517Z,-0.9
2019-03-19T00:16:40.728Z,-0.9
2019-03-19T00:17:47.926Z,-0.9
2019-03-19T00:18:55.148Z,-0.9
2019-03-19T00:20:02.338Z,-0.9
2019-03-19T00:21:09.772Z,-1
2019-03-19T00:22:16.973Z,-1
2019-03-19T00:23:23.927Z,-1
2019-03-19T00:24:31.142Z,-1
2019-03-19T00:25:38.067Z,-1
2019-03-19T00:26:45.259Z,-1.1
2019-03-19T00:27:52.463Z,-1.1
2019-03-19T00:28:59.367Z,-1.1
2019-03-19T00:30:06.561Z,-1
2019-03-19T00:31:28.413Z,-1
2019-03-19T00:32:35.618Z,-1
2019-03-19T00:33:42.834Z,-1
2019-03-19T00:34:49.767Z,-1
2019-03-19T00:35:56.718Z,-1
2019-03-19T00:37:03.934Z,-1.1
2019-03-19T00:38:11.136Z,-1.1
2019-03-19T00:39:18.074Z,-1.1
2019-03-19T00:40:25.301Z,-1.1
2019-03-19T00:41:32.518Z,-1.1
2019-03-19T00:42:39.952Z,-1.1
2019-03-19T00:43:47.154Z,-1.1
2019-03-19T00:44:54.602Z,-1.1
2019-03-19T00:46:01.804Z,-1.1
2019-03-19T00:47:08.958Z,-1.1
2019-03-19T00:48:15.891Z,-1.1
2019-03-19T00:49:23.088Z,-1.1
2019-03-19T00:50:30.302Z,-1.2
2019-03-19T00:51:37.253Z,-1.3
2019-03-19T00:52:44.195Z,-1.3
2019-03-19T00:53:51.403Z,-1.3
2019-03-19T00:54:58.350Z,-1.2
2019-03-19T00:56:05.786Z,-1.2
2019-03-19T00:57:12.991Z,-1.2
2019-03-19T00:58:20.429Z,-1.2
2019-03-19T00:59:27.645Z,-1.1
2019-03-19T01:00:34.885Z,-1.1
2019-03-19T01:01:41.829Z,-1.1
2019-03-19T01:02:49.270Z,-1.1
2019-03-19T01:03:56.173Z,-1.1
2019-03-19T01:05:03.399Z,-1.1
2019-03-19T01:06:10.625Z,-1
2019-03-19T01:07:32.475Z,-1.1
2019-03-19T01:08:39.704Z,-1
2019-03-19T01:09:46.944Z,-1.1
2019-03-19T01:10:54.149Z,-1.1
2019-03-19T01:12:01.302Z,-1.1
2019-03-19T01:13:08.510Z,-1.1
2019-03-19T01:14:15.719Z,-1.1
2019-03-19T01:15:22.646Z,-1.1
2019-03-19T01:16:30.080Z,-1.1
2019-03-19T01:17:37.302Z,-1.1
2019-03-19T01:18:44.735Z,-1.1
2019-03-19T01:19:51.956Z,-1.1
2019-03-19T01:20:59.153Z,-1
2019-03-19T01:22:06.374Z,-0.9
2019-03-19T01:23:13.595Z,-0.9
2019-03-19T01:24:20.814Z,-1
2019-03-19T01:25:28.787Z,-1
2019-03-19T01:26:36.002Z,-1
2019-03-19T01:27:43.421Z,-1
2019-03-19T01:28:50.629Z,-1
2019-03-19T01:29:57.850Z,-1
2019-03-19T01:31:05.056Z,-0.9
2019-03-19T01:32:12.262Z,-0.8
2019-03-19T01:33:19.472Z,-0.8
2019-03-19T01:34:26.670Z,-0.7
2019-03-19T01:35:33.609Z,-0.7
2019-03-19T01:36:40.836Z,-0.7
2019-03-19T01:37:47.755Z,-0.7
2019-03-19T01:38:54.962Z,-0.8
2019-03-19T01:40:01.876Z,-0.8
2019-03-19T01:41:09.310Z,-0.7
2019-03-19T01:42:16.517Z,-0.7
2019-03-19T01:43:23.728Z,-0.8
2019-03-19T01:44:30.967Z,-0.8
2019-03-19T01:45:38.188Z,-0.8
2019-03-19T01:46:45.398Z,-0.8
2019-03-19T01:47:52.625Z,-0.9
2019-03-19T01:48:59.856Z,-0.9
2019-03-19T01:50:07.095Z,-0.9
2019-03-19T01:51:14.319Z,-0.9
2019-03-19T01:52:21.515Z,-0.9
2019-03-19T01:53:28.737Z,-0.9
2019-03-19T01:54:35.669Z,-0.9
2019-03-19T01:55:42.603Z,-0.9
2019-03-19T01:56:49.831Z,-0.9
2019-03-19T01:57:57.041Z,-0.9
2019-03-19T01:59:04.262Z,-0.9
2019-03-19T02:00:11.482Z,-0.9
2019-03-19T02:01:18.411Z,-1
2019-03-19T02:02:25.636Z,-1
2019-03-19T02:03:32.583Z,-1.1
2019-03-19T02:04:39.819Z,-1.1
2019-03-19T02:05:47.242Z,-1.1
2019-03-19T02:06:54.438Z,-1.1
2019-03-19T02:08:01.611Z,-1.1
2019-03-19T02:09:08.809Z,-1.1
2019-03-19T02:10:15.738Z,-1.1
2019-03-19T02:11:23.184Z,-1.1
2019-03-19T02:12:30.385Z,-1.1
2019-03-19T02:13:37.342Z,-1.1
2019-03-19T02:14:44.281Z,-1.1
2019-03-19T02:15:51.495Z,-1.1
2019-03-19T02:16:58.934Z,-1.1
2019-03-19T02:18:06.160Z,-1.2
2019-03-19T02:19:13.384Z,-1.2
2019-03-19T02:20:20.589Z,-1.2
2019-03-19T02:21:27.546Z,-1.3
2019-03-19T02:22:34.732Z,-1.3
2019-03-19T02:23:42.188Z,-1.4
2019-03-19T02:24:49.121Z,-1.3
2019-03-19T02:25:56.543Z,-1.3
2019-03-19T02:27:03.472Z,-1.3
2019-03-19T02:28:10.671Z,-1.3
2019-03-19T02:29:17.897Z,-1.4
2019-03-19T02:30:25.122Z,-1.5
2019-03-19T02:31:32.327Z,-1.5
2019-03-19T02:32:39.546Z,-1.6
2019-03-19T02:33:46.451Z,-1.6
2019-03-19T02:34:53.681Z,-1.6
2019-03-19T02:36:00.896Z,-1.7
2019-03-19T02:37:07.862Z,-1.7
2019-03-19T02:38:14.804Z,-1.7
2019-03-19T02:39:22.025Z,-1.8
2019-03-19T02:40:28.946Z,-1.7
2019-03-19T02:41:36.164Z,-1.7
2019-03-19T02:42:43.411Z,-1.7
2019-03-19T02:43:50.701Z,-1.7
2019-03-19T02:44:57.904Z,-1.7
2019-03-19T02:46:05.133Z,-1.7
2019-03-19T02:47:12.374Z,-1.8
2019-03-19T02:48:19.809Z,-1.8
2019-03-19T02:49:26.752Z,-1.8
2019-03-19T02:50:33.728Z,-1.8
2019-03-19T02:51:40.936Z,-1.8
2019-03-19T02:52:48.153Z,-1.8
2019-03-19T02:53:55.085Z,-1.9
2019-03-19T02:55:02.300Z,-1.9
2019-03-19T02:56:09.519Z,-1.9
2019-03-19T02:57:16.768Z,-1.9
2019-03-19T02:58:23.698Z,-1.9
2019-03-19T02:59:30.941Z,-1.9
2019-03-19T03:00:38.152Z,-1.9
2019-03-19T03:01:45.375Z,-1.9
2019-03-19T03:02:52.616Z,-1.8
2019-03-19T03:04:00.072Z,-1.8
2019-03-19T03:05:07.008Z,-1.9
2019-03-19T03:06:13.934Z,-1.9
2019-03-19T03:07:21.132Z,-1.9
2019-03-19T03:08:28.348Z,-1.9
2019-03-19T03:09:35.562Z,-1.9
2019-03-19T03:10:42.766Z,-1.9
2019-03-19T03:11:49.974Z,-1.8
2019-03-19T03:12:57.402Z,-1.9
2019-03-19T03:14:04.606Z,-1.8
2019-03-19T03:15:12.040Z,-1.8
2019-03-19T03:16:19.241Z,-1.8
2019-03-19T03:17:26.454Z,-1.8
2019-03-19T03:18:33.678Z,-1.7
2019-03-19T03:19:40.874Z,-1.7
2019-03-19T03:20:47.800Z,-1.7
2019-03-19T03:21:55.015Z,-1.7
2019-03-19T03:23:02.227Z,-1.8
2019-03-19T03:24:09.557Z,-1.8
2019-03-19T03:25:16.818Z,-1.8
2019-03-19T03:26:24.276Z,-1.8
2019-03-19T03:27:46.126Z,-1.8
2019-03-19T03:28:53.369Z,-1.8
2019-03-19T03:30:00.970Z,-1.9
2019-03-19T03:31:08.346Z,-1.9
2019-03-19T03:32:15.340Z,-2
2019-03-19T03:33:22.799Z,-2
2019-03-19T03:34:30.010Z,-2.1
2019-03-19T03:35:36.955Z,-2.1
2019-03-19T03:36:44.256Z,-2.2
2019-03-19T03:37:51.471Z,-2.2
2019-03-19T03:38:58.660Z,-2.2
2019-03-19T03:40:05.883Z,-2.2
2019-03-19T03:41:13.097Z,-2.3
2019-03-19T03:42:20.333Z,-2.2
2019-03-19T03:43:27.308Z,-2.2
2019-03-19T03:44:34.532Z,-2.2
2019-03-19T03:45:41.513Z,-2.3
2019-03-19T03:46:48.747Z,-2.3
2019-03-19T03:47:55.938Z,-2.3
2019-03-19T03:49:03.093Z,-2.3
2019-03-19T03:50:10.500Z,-2.3
2019-03-19T03:51:17.460Z,-2.3
2019-03-19T03:52:24.675Z,-2.3
2019-03-19T03:53:31.623Z,-2.3
2019-03-19T03:54:38.842Z,-2.3
2019-03-19T03:55:45.791Z,-2.3
2019-03-19T03:57:03.008Z,-2.2
2019-03-19T03:58:10.601Z,-2.2
2019-03-19T03:59:17.807Z,-2.2
2019-03-19T04:00:25.049Z,-2.3
2019-03-19T04:01:32.247Z,-2.3
2019-03-19T04:02:39.677Z,-2.4
2019-03-19T04:03:46.621Z,-2.4
2019-03-19T04:04:53.591Z,-2.5
2019-03-19T04:06:00.521Z,-2.5
2019-03-19T04:07:07.717Z,-2.6
2019-03-19T04:08:14.956Z,-2.5
2019-03-19T04:09:22.189Z,-2.5
2019-03-19T04:10:29.404Z,-2.5
2019-03-19T04:11:36.142Z,-2.6
2019-03-19T04:12:43.335Z,-2.7
2019-03-19T04:13:50.578Z,-2.7
2019-03-19T04:14:57.840Z,-2.8
2019-03-19T04:16:05.268Z,-2.8
2019-03-19T04:17:12.473Z,-2.7
2019-03-19T04:18:19.670Z,-2.7
2019-03-19T04:19:26.884Z,-2.7
2019-03-19T04:20:34.104Z,-2.6
2019-03-19T04:21:41.321Z,-2.6
2019-03-19T04:22:48.519Z,-2.6
2019-03-19T04:23:55.721Z,-2.7
2019-03-19T04:25:03.168Z,-2.7
2019-03-19T04:26:10.361Z,-2.7
2019-03-19T04:27:17.773Z,-2.6
2019-03-19T04:28:24.701Z,-2.6
2019-03-19T04:29:31.939Z,-2.6
2019-03-19T04:30:39.151Z,-2.6
2019-03-19T04:31:46.354Z,-2.6
2019-03-19T04:32:53.556Z,-2.6
2019-03-19T04:34:00.774Z,-2.6
2019-03-19T04:35:07.451Z,-2.5
2019-03-19T04:36:14.424Z,-2.6
2019-03-19T04:37:21.354Z,-2.6
2019-03-19T04:38:28.311Z,-2.7
2019-03-19T04:39:35.531Z,-2.7
2019-03-19T04:40:42.763Z,-2.7
2019-03-19T04:41:49.976Z,-2.7
2019-03-19T04:42:57.411Z,-2.7
2019-03-19T04:44:04.623Z,-2.7
2019-03-19T04:45:12.043Z,-2.8
2019-03-19T04:46:19.255Z,-2.8
2019-03-19T04:47:26.452Z,-2.8
2019-03-19T04:48:33.669Z,-2.7
2019-03-19T04:49:40.860Z,-2.7
2019-03-19T04:50:48.076Z,-2.7
2019-03-19T04:51:55.240Z,-2.7
2019-03-19T04:53:02.436Z,-2.7
2019-03-19T04:54:09.627Z,-2.7
2019-03-19T04:55:16.840Z,-2.7
2019-03-19T04:56:24.270Z,-2.8
2019-03-19T04:57:31.480Z,-2.8
2019-03-19T04:58:38.704Z,-2.9
2019-03-19T04:59:45.927Z,-3
2019-03-19T05:00:53.143Z,-3
2019-03-19T05:02:00.347Z,-3
2019-03-19T23:00:06.159Z,-0.9
2019-03-19T23:01:13.358Z,-0.9
2019-03-19T23:02:20.298Z,-0.9
2019-03-19T23:03:27.502Z,-0.9
2019-03-19T23:04:34.723Z,-0.9
2019-03-19T23:05:41.932Z,-0.9
2019-03-19T23:06:49.132Z,-0.9
2019-03-19T23:07:55.781Z,-1
2019-03-19T23:09:03.006Z,-1
2019-03-19T23:10:10.211Z,-1
2019-03-19T23:11:17.428Z,-0.9
2019-03-19T23:12:24.354Z,-0.9
2019-03-19T23:13:31.562Z,-0.9
2019-03-19T23:14:38.493Z,-1
2019-03-19T23:15:45.720Z,-1
2019-03-19T23:16:52.923Z,-1
2019-03-19T23:17:59.868Z,-1.1
2019-03-19T23:19:07.074Z,-1
2019-03-19T23:20:14.280Z,-1.1
2019-03-19T23:21:21.481Z,-1.1
2019-03-19T23:22:28.423Z,-1.1
2019-03-19T23:23:35.641Z,-1.1
2019-03-19T23:24:42.848Z,-1
2019-03-19T23:25:50.048Z,-1
2019-03-19T23:26:57.271Z,-1
2019-03-19T23:28:04.485Z,-1.1
2019-03-19T23:29:11.699Z,-1.1
2019-03-19T23:30:18.907Z,-1.1
2019-03-19T23:31:26.113Z,-1.1
2019-03-19T23:32:33.323Z,-1.2
2019-03-19T23:33:40.251Z,-1.2
2019-03-19T23:34:47.192Z,-1.2
2019-03-19T23:35:54.127Z,-1.2
2019-03-19T23:37:01.054Z,-1.2
2019-03-19T23:38:07.985Z,-1.2
2019-03-19T23:39:15.188Z,-1.2
2019-03-19T23:40:21.890Z,-1.3
2019-03-19T23:41:29.148Z,-1.3
2019-03-19T23:42:36.359Z,-1.2
2019-03-19T23:43:43.033Z,-1.2
2019-03-19T23:44:50.240Z,-1.2
2019-03-19T23:45:57.452Z,-1.2
2019-03-19T23:47:04.654Z,-1.2
2019-03-19T23:48:11.856Z,-1.2
2019-03-19T23:49:19.080Z,-1.3
2019-03-19T23:50:26.016Z,-1.2
2019-03-19T23:51:33.234Z,-1.3
2019-03-19T23:52:40.438Z,-1.3
2019-03-19T23:53:47.648Z,-1.3
2019-03-19T23:54:54.863Z,-1.3
2019-03-19T23:56:02.097Z,-1.3
2019-03-19T23:57:09.284Z,-1.3
2019-03-19T23:58:16.206Z,-1.3
2019-03-19T23:59:23.410Z,-1.3
